createdAt,value
2022-12-10T00:01:11.557Z,100778.34
2022-12-10T00:03:38.903Z,100779.84
2022-12-10T00:06:10.582Z,100786.28
2022-12-10T00:08:38.245Z,100787.31
2022-12-10T00:11:07.821Z,100781.47
2022-12-10T00:13:36.903Z,100784.19
2022-12-10T00:16:09.271Z,100791.84
2022-12-10T00:18:37.399Z,100787.13
2022-12-10T00:21:05.853Z,100791.69
2022-12-10T00:23:34.087Z,100784.84
2022-12-10T00:26:04.946Z,100784.50
2022-12-10T00:28:33.362Z,100783.09
2022-12-10T00:31:07.119Z,100779.97
2022-12-10T00:33:34.576Z,100775.13
2022-12-10T00:36:06.932Z,100785.63
2022-12-10T00:38:34.331Z,100778.16
2022-12-10T00:41:01.335Z,100777.19
2022-12-10T00:43:28.485Z,100782.09
2022-12-10T00:45:55.941Z,100785.38
2022-12-10T00:48:24.570Z,100788.53
2022-12-10T00:51:00.380Z,100793.28
2022-12-10T00:53:29.139Z,100789.38
2022-12-10T00:55:57.060Z,100795.63
2022-12-10T00:58:26.900Z,100793.28
2022-12-10T01:00:53.928Z,100792.78
2022-12-10T01:03:21.171Z,100790.31
2022-12-10T01:05:49.485Z,100799.47
2022-12-10T01:08:16.423Z,100791.22
2022-12-10T01:10:43.572Z,100800.03
2022-12-10T01:13:10.524Z,100802.00
2022-12-10T01:15:39.998Z,100804.25
2022-12-10T01:18:07.087Z,100805.91
2022-12-10T01:20:37.154Z,100808.16
2022-12-10T01:23:05.531Z,100810.09
2022-12-10T01:25:32.639Z,100811.06
2022-12-10T01:27:59.538Z,100810.75
2022-12-10T01:30:26.568Z,100816.16
2022-12-10T01:32:53.529Z,100814.59
2022-12-10T01:35:20.483Z,100814.81
2022-12-10T01:37:47.482Z,100818.84
2022-12-10T01:40:15.970Z,100822.28
2022-12-10T01:42:42.963Z,100821.00
2022-12-10T01:45:13.565Z,100823.16
2022-12-10T01:47:41.184Z,100831.56
2022-12-10T01:50:09.859Z,100834.47
2022-12-10T01:52:38.373Z,100836.13
2022-12-10T01:55:42.693Z,100838.13
2022-12-10T01:58:10.882Z,100839.03
2022-12-10T02:00:47.498Z,100837.09
2022-12-10T02:03:22.420Z,100844.13
2022-12-10T02:05:58.158Z,100837.75
2022-12-10T02:08:31.429Z,100842.00
2022-12-10T02:11:14.502Z,100845.63
2022-12-10T02:13:46.723Z,100839.56
2022-12-10T02:16:18.817Z,100839.84
2022-12-10T02:18:54.473Z,100847.19
2022-12-10T02:21:30.889Z,100839.78
2022-12-10T02:24:03.949Z,100839.91
2022-12-10T02:26:44.346Z,100839.13
2022-12-10T02:29:19.542Z,100840.97
2022-12-10T02:31:56.131Z,100844.94
2022-12-10T02:34:28.194Z,100838.22
2022-12-10T02:36:59.610Z,100839.47
2022-12-10T02:39:37.444Z,100843.53
2022-12-10T02:42:07.502Z,100847.63
2022-12-10T02:44:40.609Z,100844.34
2022-12-10T02:47:09.807Z,100855.09
2022-12-10T02:49:39.935Z,100853.16
2022-12-10T02:52:09.839Z,100852.88
2022-12-10T02:54:41.940Z,100861.56
2022-12-10T02:57:36.830Z,100851.81
2022-12-10T03:00:17.280Z,100853.06
2022-12-10T03:03:03.430Z,100848.44
2022-12-10T03:05:41.382Z,100850.00
2022-12-10T03:08:15.805Z,100846.72
2022-12-10T03:10:53.684Z,100848.34
2022-12-10T03:13:30.086Z,100848.06
2022-12-10T03:16:02.931Z,100847.50
2022-12-10T03:18:33.891Z,100847.16
2022-12-10T03:21:06.781Z,100852.94
2022-12-10T03:23:37.936Z,100848.22
2022-12-10T03:26:06.600Z,100851.81
2022-12-10T03:28:41.891Z,100844.25
2022-12-10T03:31:16.063Z,100842.84
2022-12-10T03:33:44.041Z,100838.50
2022-12-10T03:36:12.349Z,100849.19
2022-12-10T03:38:40.524Z,100849.44
2022-12-10T03:41:07.877Z,100845.53
2022-12-10T03:43:34.932Z,100847.53
2022-12-10T03:46:02.170Z,100832.75
2022-12-10T03:48:30.497Z,100834.59
2022-12-10T03:50:57.477Z,100838.53
2022-12-10T03:53:24.410Z,100832.84
2022-12-10T03:55:51.363Z,100833.69
2022-12-10T03:58:20.475Z,100832.03
2022-12-10T04:00:47.815Z,100832.56
2022-12-10T04:03:14.757Z,100840.25
2022-12-10T04:05:43.002Z,100835.66
2022-12-10T04:08:09.981Z,100836.34
2022-12-10T04:10:37.707Z,100839.63
2022-12-10T04:13:23.467Z,100837.69
2022-12-10T04:16:09.049Z,100834.75
2022-12-10T04:18:36.047Z,100846.22
2022-12-10T04:21:23.774Z,100840.78
2022-12-10T04:24:09.395Z,100845.41
2022-12-10T04:26:54.599Z,100839.94
2022-12-10T04:29:22.752Z,100835.50
2022-12-10T04:31:49.728Z,100831.63
2022-12-10T04:34:17.141Z,100836.53
2022-12-10T04:36:46.554Z,100835.94
2022-12-10T04:39:14.785Z,100834.50
2022-12-10T04:41:44.269Z,100834.34
2022-12-10T04:44:12.060Z,100826.13
2022-12-10T04:46:39.483Z,100823.78
2022-12-10T04:49:06.766Z,100831.28
2022-12-10T04:51:34.509Z,100833.78
2022-12-10T04:54:03.454Z,100834.28
2022-12-10T04:56:31.155Z,100840.88
2022-12-10T04:58:59.353Z,100824.31
2022-12-10T05:01:27.704Z,100827.91
2022-12-10T05:03:54.907Z,100834.28
2022-12-10T05:06:22.090Z,100829.38
2022-12-10T05:08:49.133Z,100830.13
2022-12-10T05:11:20.283Z,100830.22
2022-12-10T05:13:48.179Z,100827.59
2022-12-10T05:16:19.194Z,100824.31
2022-12-10T05:18:46.554Z,100827.59
2022-12-10T05:21:16.804Z,100824.97
2022-12-10T05:23:47.113Z,100820.69
2022-12-10T05:26:18.929Z,100821.53
2022-12-10T05:28:48.631Z,100827.25
2022-12-10T05:31:18.306Z,100822.41
2022-12-10T05:33:45.823Z,100825.00
2022-12-10T05:36:16.336Z,100826.84
2022-12-10T05:38:44.348Z,100824.66
2022-12-10T05:41:14.795Z,100823.97
2022-12-10T05:43:44.931Z,100828.41
2022-12-10T05:46:15.801Z,100836.56
2022-12-10T05:48:42.867Z,100833.13
2022-12-10T05:51:12.997Z,100838.66
2022-12-10T05:53:40.977Z,100833.72
2022-12-10T05:56:11.758Z,100846.50
2022-12-10T05:58:40.447Z,100856.69
2022-12-10T06:01:11.949Z,100850.97
2022-12-10T06:03:39.288Z,100860.63
2022-12-10T06:06:06.855Z,100856.69
2022-12-10T06:08:35.882Z,100862.88
2022-12-10T06:11:03.766Z,100857.63
2022-12-10T06:13:30.692Z,100861.63
2022-12-10T06:15:57.640Z,100860.34
2022-12-10T06:18:26.155Z,100857.88
2022-12-10T06:20:53.120Z,100871.09
2022-12-10T06:23:20.042Z,100872.38
2022-12-10T06:25:46.979Z,100868.72
2022-12-10T06:28:13.928Z,100865.72
2022-12-10T06:30:40.943Z,100867.69
2022-12-10T06:33:07.874Z,100874.56
2022-12-10T06:35:38.141Z,100877.19
2022-12-10T06:38:05.131Z,100873.56
2022-12-10T06:40:32.137Z,100876.81
2022-12-10T06:42:59.038Z,100874.03
2022-12-10T06:45:25.955Z,100877.47
2022-12-10T06:47:52.902Z,100887.13
2022-12-10T06:50:19.841Z,100886.50
2022-12-10T06:52:51.840Z,100888.44
2022-12-10T06:55:21.800Z,100884.13
2022-12-10T06:57:51.870Z,100886.34
2022-12-10T07:00:22.163Z,100898.16
2022-12-10T07:02:49.767Z,100893.81
2022-12-10T07:05:17.490Z,100899.16
2022-12-10T07:07:44.673Z,100901.91
2022-12-10T07:10:14.498Z,100905.78
2022-12-10T07:12:41.493Z,100904.16
2022-12-10T07:15:09.641Z,100915.72
2022-12-10T07:17:36.625Z,100908.00
2022-12-10T07:20:04.416Z,100912.88
2022-12-10T07:22:31.391Z,100919.97
2022-12-10T07:24:58.351Z,100917.00
2022-12-10T07:27:26.747Z,100922.94
2022-12-10T07:29:53.750Z,100922.44
2022-12-10T07:32:20.705Z,100929.84
2022-12-10T07:34:47.603Z,100927.22
2022-12-10T07:37:14.615Z,100919.22
2022-12-10T07:39:43.778Z,100917.84
2022-12-10T07:42:10.746Z,100920.69
2022-12-10T07:44:39.042Z,100921.91
2022-12-10T07:47:06.433Z,100926.31
2022-12-10T07:49:33.382Z,100930.13
2022-12-10T07:52:00.307Z,100929.97
2022-12-10T07:54:27.253Z,100933.44
2022-12-10T07:56:54.153Z,100943.56
2022-12-10T07:59:21.109Z,100932.81
2022-12-10T08:01:50.291Z,100937.22
2022-12-10T08:04:17.307Z,100941.06
2022-12-10T08:06:44.608Z,100954.81
2022-12-10T08:09:13.051Z,100946.28
2022-12-10T08:11:40.074Z,100946.59
2022-12-10T08:14:07.053Z,100952.19
2022-12-10T08:16:34.243Z,100954.81
2022-12-10T08:19:03.099Z,100959.50
2022-12-10T08:21:32.547Z,100952.81
2022-12-10T08:24:01.119Z,100968.53
2022-12-10T08:26:31.488Z,100968.97
2022-12-10T08:28:59.866Z,100969.25
2022-12-10T08:31:31.837Z,100969.97
2022-12-10T08:34:02.706Z,100969.63
2022-12-10T08:36:31.262Z,100974.59
2022-12-10T08:38:58.247Z,100973.91
2022-12-10T08:41:25.277Z,100977.09
2022-12-10T08:43:53.414Z,100979.03
2022-12-10T08:46:20.705Z,100976.44
2022-12-10T08:48:47.847Z,100979.44
2022-12-10T08:51:19.294Z,100972.94
2022-12-10T08:53:47.265Z,100976.38
2022-12-10T08:56:14.384Z,100968.97
2022-12-10T08:58:42.085Z,100977.38
2022-12-10T09:01:10.895Z,100975.41
2022-12-10T09:03:38.428Z,100979.94
2022-12-10T09:06:07.867Z,100978.66
2022-12-10T09:08:38.878Z,100986.22
2022-12-10T09:11:08.027Z,100985.63
2022-12-10T09:13:35.237Z,100986.69
2022-12-10T09:16:02.624Z,100990.34
2022-12-10T09:18:29.656Z,100994.56
2022-12-10T09:20:56.656Z,101003.47
2022-12-10T09:23:24.253Z,101011.16
2022-12-10T09:25:53.005Z,101006.09
2022-12-10T09:28:19.987Z,101010.41
2022-12-10T09:30:55.878Z,101006.28
2022-12-10T09:33:22.917Z,101004.88
2022-12-10T09:35:49.837Z,101002.34
2022-12-10T09:38:17.019Z,101010.25
2022-12-10T09:40:51.132Z,101007.44
2022-12-10T09:43:33.689Z,101003.53
2022-12-10T09:46:13.027Z,101006.16
2022-12-10T09:48:59.780Z,100998.00
2022-12-10T09:51:35.133Z,100998.22
2022-12-10T09:54:12.580Z,101003.63
2022-12-10T09:56:41.007Z,101002.13
2022-12-10T09:59:22.898Z,101003.53
2022-12-10T10:02:02.929Z,101002.88
2022-12-10T10:04:30.130Z,101000.53
2022-12-10T10:06:58.640Z,101004.16
2022-12-10T10:09:26.006Z,101000.53
2022-12-10T10:11:54.278Z,101009.91
2022-12-10T10:14:28.353Z,101007.44
2022-12-10T10:17:02.091Z,101010.50
2022-12-10T10:19:35.040Z,101007.72
2022-12-10T10:22:02.335Z,101006.00
2022-12-10T10:24:36.812Z,101008.09
2022-12-10T10:27:15.734Z,101008.63
2022-12-10T10:29:46.444Z,101016.53
2022-12-10T10:32:20.113Z,101009.38
2022-12-10T10:34:53.768Z,101009.72
2022-12-10T10:37:26.250Z,101017.00
2022-12-10T10:39:53.786Z,101016.25
2022-12-10T10:42:38.890Z,101014.00
2022-12-10T10:45:37.445Z,101012.72
2022-12-10T10:48:10.934Z,101008.44
2022-12-10T10:50:41.442Z,101005.81
2022-12-10T10:53:47.440Z,101004.28
2022-12-10T10:56:18.095Z,101008.41
2022-12-10T10:58:56.038Z,100999.41
2022-12-10T11:01:27.524Z,100997.50
2022-12-10T11:03:59.060Z,101001.84
2022-12-10T11:06:26.955Z,100995.19
2022-12-10T11:08:58.952Z,100999.75
2022-12-10T11:11:35.485Z,100998.94
2022-12-10T11:14:23.630Z,100992.72
2022-12-10T11:17:01.676Z,100985.03
2022-12-10T11:19:28.761Z,100991.66
2022-12-10T11:21:55.851Z,100993.91
2022-12-10T11:24:23.202Z,100992.94
2022-12-10T11:27:14.303Z,100987.53
2022-12-10T11:29:58.245Z,100988.13
2022-12-10T11:32:57.682Z,100986.81
2022-12-10T11:35:43.500Z,100977.44
2022-12-10T11:38:28.604Z,100981.16
2022-12-10T11:41:11.796Z,100982.66
2022-12-10T11:44:00.819Z,100989.38
2022-12-10T11:47:01.377Z,100991.22
2022-12-10T11:49:47.445Z,100982.09
2022-12-10T11:52:30.970Z,100976.19
2022-12-10T11:55:15.989Z,100980.75
2022-12-10T11:57:52.918Z,100971.97
2022-12-10T12:00:24.430Z,100972.25
2022-12-10T12:03:26.677Z,100979.34
2022-12-10T12:06:21.208Z,100978.09
2022-12-10T12:09:02.027Z,100980.03
2022-12-10T12:11:51.307Z,100980.88
2022-12-10T12:14:26.551Z,100981.72
2022-12-10T12:17:05.785Z,100982.69
2022-12-10T12:19:38.777Z,100985.00
2022-12-10T12:22:16.192Z,100984.44
2022-12-10T12:24:48.479Z,100990.81
2022-12-10T12:27:27.995Z,100990.28
2022-12-10T12:30:08.110Z,100985.47
2022-12-10T12:32:47.791Z,100992.84
2022-12-10T12:35:22.592Z,100989.47
2022-12-10T12:37:58.759Z,100987.19
2022-12-10T12:40:31.163Z,100986.22
2022-12-10T12:43:02.990Z,100977.41
2022-12-10T12:45:39.011Z,100987.34
2022-12-10T12:48:20.856Z,100988.47
2022-12-10T12:50:52.233Z,100996.78
2022-12-10T12:53:24.412Z,100998.53
2022-12-10T12:56:03.410Z,100991.25
2022-12-10T12:58:41.747Z,100986.91
2022-12-10T13:01:25.537Z,100984.00
2022-12-10T13:03:53.006Z,100987.72
2022-12-10T13:06:25.959Z,100992.00
2022-12-10T13:09:26.735Z,100989.91
2022-12-10T13:12:29.401Z,100987.53
2022-12-10T13:15:17.588Z,100991.19
2022-12-10T13:18:07.969Z,100995.16
2022-12-10T13:20:41.464Z,100992.31
2022-12-10T13:23:35.780Z,100992.50
2022-12-10T13:26:26.285Z,100996.63
2022-12-10T13:28:55.461Z,100998.00
2022-12-10T13:31:37.995Z,101001.38
2022-12-10T13:34:34.106Z,101003.31
2022-12-10T13:37:16.443Z,101013.63
2022-12-10T13:39:55.290Z,101016.25
2022-12-10T13:42:52.604Z,101029.19
2022-12-10T13:45:32.476Z,101027.19
2022-12-10T13:48:32.067Z,101038.13
2022-12-10T13:51:29.162Z,101035.13
2022-12-10T13:54:31.196Z,101031.81
2022-12-10T13:57:19.336Z,101033.78
2022-12-10T14:00:07.001Z,101034.91
2022-12-10T14:03:11.772Z,101033.63
2022-12-10T14:05:56.623Z,101035.78
2022-12-10T14:08:29.227Z,101036.47
2022-12-10T14:10:59.673Z,101038.28
2022-12-10T14:13:39.476Z,101039.97
2022-12-10T14:16:14.966Z,101041.53
2022-12-10T14:18:47.116Z,101039.22
2022-12-10T14:21:16.514Z,101050.56
2022-12-10T14:23:50.676Z,101048.63
2022-12-10T14:26:28.610Z,101044.38
2022-12-10T14:28:58.637Z,101047.94
2022-12-10T14:31:33.013Z,101053.19
2022-12-10T14:34:05.436Z,101059.41
2022-12-10T14:36:38.322Z,101052.75
2022-12-10T14:39:13.130Z,101060.31
2022-12-10T14:41:41.188Z,101060.09
2022-12-10T14:44:16.250Z,101063.97
2022-12-10T14:46:47.281Z,101058.75
2022-12-10T14:49:20.697Z,101061.72
2022-12-10T14:51:47.784Z,101056.88
2022-12-10T14:54:32.283Z,101061.16
2022-12-10T14:57:04.478Z,101062.50
2022-12-10T14:59:40.427Z,101062.50
2022-12-10T15:02:20.306Z,101065.41
2022-12-10T15:04:50.074Z,101065.56
2022-12-10T15:07:24.249Z,101066.22
2022-12-10T15:09:54.286Z,101061.81
2022-12-10T15:12:32.730Z,101060.88
2022-12-10T15:15:09.365Z,101064.72
2022-12-10T15:17:44.460Z,101072.91
2022-12-10T15:20:22.976Z,101061.97
2022-12-10T15:22:50.356Z,101069.69
2022-12-10T15:25:29.188Z,101075.19
2022-12-10T15:28:01.114Z,101074.13
2022-12-10T15:30:40.045Z,101077.75
2022-12-10T15:33:30.384Z,101072.19
2022-12-10T15:36:00.477Z,101067.22
2022-12-10T15:38:29.470Z,101076.09
2022-12-10T15:41:22.713Z,101069.38
2022-12-10T15:44:01.210Z,101074.22
2022-12-10T15:46:28.580Z,101076.38
2022-12-10T15:48:56.876Z,101074.06
2022-12-10T15:51:24.847Z,101076.03
2022-12-10T15:53:52.481Z,101071.38
2022-12-10T15:56:19.398Z,101076.22
2022-12-10T15:58:46.415Z,101081.72
2022-12-10T16:01:16.618Z,101075.50
2022-12-10T16:03:46.224Z,101082.97
2022-12-10T16:06:19.664Z,101081.53
2022-12-10T16:08:46.929Z,101075.28
2022-12-10T16:11:19.315Z,101081.22
2022-12-10T16:13:53.411Z,101082.03
2022-12-10T16:16:21.224Z,101082.03
2022-12-10T16:18:48.313Z,101087.97
2022-12-10T16:21:17.638Z,101078.22
2022-12-10T16:23:44.634Z,101087.31
2022-12-10T16:26:17.279Z,101080.69
2022-12-10T16:28:45.352Z,101083.75
2022-12-10T16:31:16.149Z,101075.47
2022-12-10T16:33:43.527Z,101085.94
2022-12-10T16:36:12.059Z,101089.72
2022-12-10T16:38:41.453Z,101080.78
2022-12-10T16:41:17.314Z,101086.81
2022-12-10T16:43:44.331Z,101082.69
2022-12-10T16:46:12.653Z,101084.59
2022-12-10T16:48:40.253Z,101086.22
2022-12-10T16:51:17.997Z,101082.50
2022-12-10T16:53:46.308Z,101087.59
2022-12-10T16:56:15.891Z,101082.94
2022-12-10T16:58:44.175Z,101072.91
2022-12-10T17:01:19.988Z,101075.25
2022-12-10T17:03:47.898Z,101077.44
2022-12-10T17:06:15.286Z,101082.41
2022-12-10T17:08:42.697Z,101076.66
2022-12-10T17:11:38.583Z,101084.88
2022-12-10T17:14:10.162Z,101081.91
2022-12-10T17:16:37.173Z,101083.81
2022-12-10T17:19:04.182Z,101085.75
2022-12-10T17:21:34.296Z,101087.69
2022-12-10T17:24:06.335Z,101090.56
2022-12-10T17:26:38.799Z,101090.16
2022-12-10T17:29:14.289Z,101090.03
2022-12-10T17:31:41.640Z,101085.91
2022-12-10T17:34:09.927Z,101080.44
2022-12-10T17:36:36.875Z,101073.53
2022-12-10T17:39:04.582Z,101078.34
2022-12-10T17:41:31.587Z,101085.94
2022-12-10T17:43:59.947Z,101083.47
2022-12-10T17:46:27.153Z,101080.28
2022-12-10T17:48:54.111Z,101081.09
2022-12-10T17:51:21.144Z,101081.78
2022-12-10T17:53:48.363Z,101093.50
2022-12-10T17:56:18.653Z,101096.50
2022-12-10T17:58:47.117Z,101099.25
2022-12-10T18:01:17.158Z,101107.06
2022-12-10T18:03:44.364Z,101110.78
2022-12-10T18:06:16.695Z,101110.50
2022-12-10T18:08:44.787Z,101104.59
2022-12-10T18:11:13.874Z,101109.94
2022-12-10T18:13:46.083Z,101108.84
2022-12-10T18:16:19.546Z,101110.34
2022-12-10T18:18:47.429Z,101119.44
2022-12-10T18:21:21.111Z,101123.97
2022-12-10T18:23:49.638Z,101123.97
2022-12-10T18:26:20.665Z,101119.72
2022-12-10T18:29:19.443Z,101121.25
2022-12-10T18:32:14.024Z,101130.91
2022-12-10T18:34:41.118Z,101130.63
2022-12-10T18:37:14.775Z,101118.66
2022-12-10T18:39:43.077Z,101123.19
2022-12-10T18:42:09.985Z,101128.69
2022-12-10T18:44:37.428Z,101127.47
2022-12-10T18:47:10.449Z,101130.34
2022-12-10T18:49:38.733Z,101129.00
2022-12-10T18:52:05.935Z,101131.59
2022-12-10T18:54:32.890Z,101128.41
2022-12-10T18:59:46.723Z,101135.56
2022-12-10T19:02:15.093Z,101130.59
2022-12-10T19:04:42.881Z,101139.69
2022-12-10T19:07:12.965Z,101144.50
2022-12-10T19:09:40.354Z,101138.00
2022-12-10T19:12:07.739Z,101144.34
2022-12-10T19:14:34.742Z,101142.44
2022-12-10T19:17:01.829Z,101137.75
2022-12-10T19:19:30.117Z,101131.59
2022-12-10T19:21:57.086Z,101140.53
2022-12-10T19:24:24.067Z,101134.72
2022-12-10T19:26:51.121Z,101134.28
2022-12-10T19:29:21.307Z,101142.97
2022-12-10T19:31:50.782Z,101136.06
2022-12-10T19:34:20.712Z,101135.81
2022-12-10T19:36:52.339Z,101133.03
2022-12-10T19:39:23.168Z,101132.25
2022-12-10T19:41:51.404Z,101135.53
2022-12-10T19:44:18.614Z,101136.22
2022-12-10T19:46:46.331Z,101134.44
2022-12-10T19:49:15.611Z,101135.00
2022-12-10T19:51:43.400Z,101135.56
2022-12-10T19:54:12.212Z,101127.72
2022-12-10T19:56:40.848Z,101131.97
2022-12-10T19:59:15.139Z,101124.56
2022-12-10T20:01:42.901Z,101135.84
2022-12-10T20:04:10.421Z,101140.25
2022-12-10T20:06:41.283Z,101139.97
2022-12-10T20:09:18.592Z,101130.59
2022-12-10T20:11:46.302Z,101136.91
2022-12-10T20:14:13.302Z,101133.91
2022-12-10T20:16:41.544Z,101142.69
2022-12-10T20:19:11.160Z,101145.47
2022-12-10T20:21:38.162Z,101136.91
2022-12-10T20:24:06.857Z,101141.34
2022-12-10T20:26:38.466Z,101150.78
2022-12-10T20:29:17.718Z,101141.13
2022-12-10T20:31:47.036Z,101142.78
2022-12-10T20:34:14.598Z,101141.31
2022-12-10T20:36:42.239Z,101141.03
2022-12-10T20:39:18.470Z,101148.13
2022-12-10T20:41:48.822Z,101138.63
2022-12-10T20:44:16.694Z,101141.06
2022-12-10T20:46:44.187Z,101145.84
2022-12-10T20:49:12.663Z,101138.25
2022-12-10T20:51:39.661Z,101138.50
2022-12-10T20:54:07.230Z,101133.00
2022-12-10T20:56:35.018Z,101139.91
2022-12-10T20:59:04.167Z,101132.06
2022-12-10T21:01:31.764Z,101128.22
2022-12-10T21:03:59.605Z,101130.72
2022-12-10T21:06:30.307Z,101124.84
2022-12-10T21:08:57.679Z,101125.13
2022-12-10T21:11:24.994Z,101127.50
2022-12-10T21:13:52.062Z,101125.00
2022-12-10T21:16:25.247Z,101126.97
2022-12-10T21:18:54.063Z,101122.00
2022-12-10T21:21:24.068Z,101130.41
2022-12-10T21:23:51.157Z,101131.34
2022-12-10T21:26:18.255Z,101124.56
2022-12-10T21:28:45.617Z,101134.28
2022-12-10T21:31:21.640Z,101131.41
2022-12-10T21:33:49.324Z,101135.41
2022-12-10T21:36:19.344Z,101133.34
2022-12-10T21:38:46.453Z,101135.53
2022-12-10T21:41:38.309Z,101137.47
2022-12-10T21:44:05.521Z,101128.47
2022-12-10T21:46:34.466Z,101126.59
2022-12-10T21:49:01.739Z,101125.66
2022-12-10T21:51:29.020Z,101120.69
2022-12-10T21:53:59.370Z,101127.19
2022-12-10T21:56:27.557Z,101121.25
2022-12-10T21:58:54.909Z,101122.34
2022-12-10T22:01:22.236Z,101123.31
2022-12-10T22:03:50.587Z,101121.78
2022-12-10T22:06:23.699Z,101118.22
2022-12-10T22:08:50.987Z,101122.91
2022-12-10T22:11:18.247Z,101114.38
2022-12-10T22:13:45.349Z,101118.78
2022-12-10T22:16:12.503Z,101116.50
2022-12-10T22:18:39.478Z,101117.19
2022-12-10T22:21:09.049Z,101114.72
2022-12-10T22:23:35.982Z,101107.00
2022-12-10T22:26:08.883Z,101111.28
2022-12-10T22:28:35.942Z,101104.97
2022-12-10T22:31:08.161Z,101106.06
2022-12-10T22:33:35.694Z,101115.13
2022-12-10T22:36:03.062Z,101114.56
2022-12-10T22:38:31.337Z,101112.66
2022-12-10T22:41:00.358Z,101115.69
2022-12-10T22:43:49.947Z,101107.75
2022-12-10T22:46:14.413Z,101112.38
2022-12-10T22:48:41.366Z,101119.53
2022-12-10T22:51:08.960Z,101114.00
2022-12-10T22:53:37.404Z,101122.34
2022-12-10T22:56:07.363Z,101117.38
2022-12-10T22:58:34.604Z,101118.38
2022-12-10T23:01:02.441Z,101125.25
2022-12-10T23:03:29.618Z,101119.22
2022-12-10T23:05:58.311Z,101130.22
2022-12-10T23:08:28.304Z,101134.59
2022-12-10T23:10:56.622Z,101130.47
2022-12-10T23:13:23.573Z,101131.03
2022-12-10T23:15:53.143Z,101130.78
2022-12-10T23:18:22.145Z,101128.03
2022-12-10T23:20:50.659Z,101124.16
2022-12-10T23:23:18.030Z,101129.13
2022-12-10T23:25:46.324Z,101118.53
2022-12-10T23:28:15.113Z,101123.06
2022-12-10T23:30:42.846Z,101127.19
2022-12-10T23:33:10.118Z,101120.22
2022-12-10T23:35:40.901Z,101118.75
2022-12-10T23:38:08.393Z,101107.75
2022-12-10T23:40:35.683Z,101106.47
2022-12-10T23:43:02.662Z,101112.38
2022-12-10T23:45:31.024Z,101118.28
2022-12-10T23:47:58.016Z,101108.81
2022-12-10T23:50:25.253Z,101108.66
2022-12-10T23:52:54.101Z,101105.50
2022-12-10T23:55:21.403Z,101111.16
2022-12-10T23:57:48.374Z,101116.56
